createdAt,value
2018-09-14T00:01:51.765Z,91.20
2018-09-14T00:04:21.001Z,91.40
2018-09-14T00:06:50.225Z,92.50
2018-09-14T00:09:19.753Z,92.10
2018-09-14T00:11:50.235Z,91.70
2018-09-14T00:14:19.528Z,91.60
2018-09-14T00:16:49.221Z,92.40
2018-09-14T00:19:18.477Z,92.50
2018-09-14T00:21:47.724Z,93.60
2018-09-14T00:24:17.015Z,93.00
2018-09-14T00:26:46.256Z,92.10
2018-09-14T00:29:15.497Z,92.70
2018-09-14T00:31:44.929Z,92.00
2018-09-14T00:34:14.173Z,92.70
2018-09-14T00:36:43.544Z,93.80
2018-09-14T00:39:13.277Z,93.50
2018-09-14T00:41:42.565Z,93.70
2018-09-14T00:44:11.808Z,93.30
2018-09-14T00:46:41.087Z,93.40
2018-09-14T00:49:10.367Z,93.50
2018-09-14T00:51:39.699Z,93.30
2018-09-14T00:54:09.027Z,93.10
2018-09-14T00:56:38.248Z,93.50
2018-09-14T00:59:07.497Z,93.40
2018-09-14T01:01:36.775Z,93.20
2018-09-14T01:04:06.096Z,93.10
2018-09-14T01:06:35.364Z,93.50
2018-09-14T01:09:07.195Z,93.30
2018-09-14T01:11:36.448Z,93.30
2018-09-14T01:14:05.709Z,93.20
2018-09-14T01:16:35.212Z,93.60
2018-09-14T01:19:05.164Z,93.70
2018-09-14T01:21:34.421Z,94.00
2018-09-14T01:24:03.679Z,93.80
2018-09-14T01:26:32.960Z,94.40
2018-09-14T01:29:02.179Z,93.50
2018-09-14T01:31:31.436Z,94.50
2018-09-14T01:34:00.696Z,95.10
2018-09-14T01:36:29.925Z,94.00
2018-09-14T01:38:59.264Z,94.30
2018-09-14T01:41:28.516Z,94.00
2018-09-14T01:43:57.761Z,94.40
2018-09-14T01:46:27.024Z,94.40
2018-09-14T01:48:56.340Z,95.00
2018-09-14T01:51:25.640Z,95.00
2018-09-14T01:53:54.932Z,94.80
2018-09-14T01:56:24.212Z,94.00
2018-09-14T01:58:53.479Z,93.80
2018-09-14T02:01:22.883Z,95.40
2018-09-14T02:03:52.146Z,94.20
2018-09-14T02:06:21.955Z,94.10
2018-09-14T02:08:51.238Z,94.00
2018-09-14T02:11:20.500Z,94.00
2018-09-14T02:13:49.729Z,94.30
2018-09-14T02:16:19.021Z,93.90
2018-09-14T02:18:48.368Z,94.00
2018-09-14T02:21:17.892Z,94.30
2018-09-14T02:23:47.697Z,93.90
2018-09-14T02:26:16.923Z,94.90
2018-09-14T02:28:46.228Z,93.80
2018-09-14T02:31:15.552Z,94.00
2018-09-14T02:33:44.797Z,94.60
2018-09-14T02:36:14.029Z,94.50
2018-09-14T02:38:44.513Z,94.30
2018-09-14T02:41:13.749Z,94.20
2018-09-14T02:43:42.988Z,94.10
2018-09-14T02:46:12.360Z,94.00
2018-09-14T02:48:41.631Z,94.00
2018-09-14T02:51:10.853Z,94.40
2018-09-14T02:53:40.179Z,94.00
2018-09-14T02:56:09.420Z,94.30
2018-09-14T02:58:38.711Z,94.20
2018-09-14T03:01:07.967Z,94.20
2018-09-14T03:03:37.200Z,93.90
2018-09-14T03:06:06.584Z,94.00
2018-09-14T03:08:35.948Z,94.20
2018-09-14T03:11:05.197Z,94.00
2018-09-14T03:13:34.461Z,94.00
2018-09-14T03:16:03.736Z,94.00
2018-09-14T03:18:32.997Z,94.20
2018-09-14T03:21:02.242Z,95.30
2018-09-14T03:23:32.005Z,94.30
2018-09-14T03:26:01.544Z,94.40
2018-09-14T03:28:30.802Z,95.70
2018-09-14T03:31:00.376Z,95.40
2018-09-14T03:33:29.600Z,94.80
2018-09-14T03:35:58.849Z,95.20
2018-09-14T03:38:28.377Z,95.00
2018-09-14T03:40:57.689Z,95.10
2018-09-14T03:43:26.929Z,95.20
2018-09-14T03:45:56.196Z,95.00
2018-09-14T03:48:25.453Z,95.20
2018-09-14T03:50:54.696Z,95.90
2018-09-14T03:53:24.016Z,95.20
2018-09-14T03:55:53.456Z,95.20
2018-09-14T03:58:22.793Z,95.70
2018-09-14T04:00:52.101Z,95.30
2018-09-14T04:03:21.353Z,96.00
2018-09-14T04:05:50.660Z,96.40
2018-09-14T04:08:19.938Z,95.60
2018-09-14T04:10:49.206Z,95.60
2018-09-14T04:13:18.472Z,96.30
2018-09-14T04:15:48.069Z,96.30
2018-09-14T04:18:17.299Z,95.70
2018-09-14T04:20:46.545Z,96.50
2018-09-14T04:23:15.834Z,95.50
2018-09-14T04:25:45.164Z,96.00
2018-09-14T04:28:14.567Z,95.50
2018-09-14T04:30:43.997Z,95.70
2018-09-14T04:33:13.273Z,95.60
2018-09-14T04:35:42.607Z,95.70
2018-09-14T04:38:12.178Z,95.90
2018-09-14T04:40:41.892Z,96.00
2018-09-14T04:43:11.127Z,95.50
2018-09-14T04:45:40.396Z,96.10
2018-09-14T04:48:09.728Z,96.00
2018-09-14T04:50:38.951Z,95.70
2018-09-14T04:53:08.225Z,95.80
2018-09-14T04:55:37.472Z,95.50
2018-09-14T04:58:06.701Z,95.60
2018-09-14T05:00:36.043Z,95.70
2018-09-14T05:03:05.553Z,95.60
2018-09-14T05:05:34.772Z,95.80
2018-09-14T05:08:04.160Z,96.10
2018-09-14T05:10:33.404Z,95.90
2018-09-14T05:13:02.628Z,96.10
2018-09-14T05:15:31.880Z,95.70
2018-09-14T05:18:02.711Z,95.90
2018-09-14T05:20:32.424Z,96.00
2018-09-14T05:23:02.168Z,96.10
2018-09-14T05:25:31.768Z,96.00
2018-09-14T05:28:01.295Z,96.10
2018-09-14T05:30:30.832Z,95.90
2018-09-14T05:33:00.103Z,95.90
2018-09-14T05:35:29.362Z,95.80
2018-09-14T05:37:58.636Z,96.40
2018-09-14T05:40:28.148Z,96.10
2018-09-14T05:42:57.380Z,96.20
2018-09-14T05:45:27.212Z,96.30
2018-09-14T05:47:56.453Z,96.00
2018-09-14T05:50:25.692Z,96.10
2018-09-14T05:52:54.987Z,95.90
2018-09-14T05:55:24.244Z,96.00
2018-09-14T05:57:53.475Z,96.70
2018-09-14T06:00:22.828Z,96.10
2018-09-14T06:02:52.047Z,96.40
2018-09-14T06:05:21.328Z,96.20
2018-09-14T06:07:50.663Z,96.80
2018-09-14T06:10:19.912Z,97.10
2018-09-14T06:12:49.289Z,96.50
2018-09-14T06:15:18.565Z,96.10
2018-09-14T06:17:47.797Z,96.30
2018-09-14T06:20:17.041Z,96.40
2018-09-14T06:22:46.363Z,96.60
2018-09-14T06:25:15.567Z,96.30
2018-09-14T06:27:44.808Z,96.30
2018-09-14T06:30:14.719Z,96.60
2018-09-14T06:32:44.309Z,96.60
2018-09-14T06:35:13.569Z,96.50
2018-09-14T06:37:42.928Z,96.50
2018-09-14T06:40:12.173Z,96.50
2018-09-14T06:42:41.407Z,96.70
2018-09-14T06:45:10.768Z,96.30
2018-09-14T06:47:39.967Z,96.60
2018-09-14T06:50:09.196Z,96.30
2018-09-14T06:52:38.524Z,96.50
2018-09-14T06:55:10.461Z,96.30
2018-09-14T06:57:39.728Z,96.70
2018-09-14T07:00:09.253Z,96.80
2018-09-14T07:02:38.676Z,96.50
2018-09-14T07:05:08.001Z,96.40
2018-09-14T07:07:37.236Z,96.30
2018-09-14T07:10:06.504Z,96.20
2018-09-14T07:12:36.133Z,96.20
2018-09-14T07:15:05.481Z,96.00
2018-09-14T07:17:34.757Z,96.20
2018-09-14T07:20:06.065Z,96.40
2018-09-14T07:22:38.368Z,96.50
2018-09-14T07:25:09.653Z,96.10
2018-09-14T07:27:39.484Z,96.10
2018-09-14T07:30:08.868Z,96.20
2018-09-14T07:32:41.474Z,96.10
2018-09-14T07:35:10.696Z,95.80
2018-09-14T07:37:40.286Z,96.10
2018-09-14T07:40:09.896Z,96.00
2018-09-14T07:42:39.256Z,96.20
2018-09-14T07:45:08.654Z,96.30
2018-09-14T07:47:37.961Z,96.60
2018-09-14T07:50:08.425Z,96.80
2018-09-14T07:52:39.994Z,96.60
2018-09-14T07:55:09.972Z,96.30
2018-09-14T07:57:39.225Z,96.40
2018-09-14T08:00:08.625Z,96.70
2018-09-14T08:02:37.904Z,96.90
2018-09-14T08:05:08.380Z,96.90
2018-09-14T08:07:37.738Z,96.70
2018-09-14T08:10:07.157Z,96.60
2018-09-14T08:12:36.536Z,96.60
2018-09-14T08:15:06.451Z,96.60
2018-09-14T08:17:35.876Z,96.40
2018-09-14T08:20:05.486Z,96.40
2018-09-14T08:22:35.157Z,96.60
2018-09-14T08:25:04.565Z,96.50
2018-09-14T08:27:34.135Z,96.50
2018-09-14T08:30:03.393Z,96.60
2018-09-14T08:32:32.973Z,96.70
2018-09-14T08:35:02.931Z,97.10
2018-09-14T08:37:32.768Z,96.60
2018-09-14T08:40:02.324Z,95.80
2018-09-14T08:42:31.704Z,95.80
2018-09-14T08:45:01.444Z,96.10
2018-09-14T08:47:31.293Z,96.60
2018-09-14T08:50:00.903Z,96.50
2018-09-14T08:52:30.152Z,96.40
2018-09-14T08:54:59.386Z,96.70
2018-09-14T08:57:28.656Z,96.60
2018-09-14T08:59:58.394Z,96.10
2018-09-14T09:02:27.624Z,95.60
2018-09-14T09:04:57.969Z,95.70
2018-09-14T09:07:35.681Z,95.30
2018-09-14T09:10:05.911Z,95.20
2018-09-14T09:12:36.397Z,93.80
2018-09-14T09:15:05.792Z,93.10
2018-09-14T09:17:35.126Z,92.90
2018-09-14T09:20:05.476Z,93.20
2018-09-14T09:22:34.832Z,93.70
2018-09-14T09:25:04.116Z,94.00
2018-09-14T09:27:33.573Z,93.90
2018-09-14T09:30:03.078Z,93.80
2018-09-14T09:32:32.407Z,93.50
2018-09-14T09:35:01.734Z,93.90
2018-09-14T09:37:31.220Z,94.30
2018-09-14T09:40:00.466Z,94.30
2018-09-14T09:42:30.160Z,94.80
2018-09-14T09:44:59.397Z,95.40
2018-09-14T09:47:28.704Z,95.10
2018-09-14T09:49:57.992Z,94.60
2018-09-14T09:52:27.235Z,94.90
2018-09-14T09:54:56.464Z,93.60
2018-09-14T09:57:25.778Z,94.60
2018-09-14T09:59:55.046Z,93.90
2018-09-14T10:02:34.205Z,93.30
2018-09-14T10:05:08.816Z,92.80
2018-09-14T10:07:38.167Z,93.00
2018-09-14T10:10:11.475Z,93.20
2018-09-14T10:12:40.793Z,91.90
2018-09-14T10:15:10.245Z,92.00
2018-09-14T10:17:39.485Z,91.70
2018-09-14T10:20:10.776Z,91.30
2018-09-14T10:22:40.105Z,91.30
2018-09-14T10:25:09.343Z,90.30
2018-09-14T10:27:38.895Z,91.10
2018-09-14T10:30:08.284Z,91.40
2018-09-14T10:32:37.621Z,91.40
2018-09-14T10:35:07.280Z,85.70
2018-09-14T10:37:37.068Z,86.00
2018-09-14T10:40:06.423Z,86.20
2018-09-14T10:42:36.071Z,85.60
2018-09-14T10:45:05.705Z,82.60
2018-09-14T10:47:34.940Z,85.70
2018-09-14T10:50:04.398Z,82.10
2018-09-14T10:52:33.940Z,84.80
2018-09-14T10:55:03.320Z,86.00
2018-09-14T10:57:32.591Z,85.70
2018-09-14T11:00:01.844Z,81.60
2018-09-14T11:02:31.076Z,78.70
2018-09-14T11:05:01.176Z,76.90
2018-09-14T11:07:30.739Z,75.60
2018-09-14T11:10:00.016Z,73.70
2018-09-14T11:12:29.715Z,73.90
2018-09-14T11:14:58.895Z,66.30
2018-09-14T11:17:28.372Z,61.40
2018-09-14T11:19:57.621Z,62.50
2018-09-14T11:22:26.895Z,69.30
2018-09-14T11:24:56.513Z,68.10
2018-09-14T11:27:26.068Z,59.30
2018-09-14T11:29:55.316Z,62.80
2018-09-14T11:32:30.056Z,55.50
2018-09-14T11:34:59.548Z,50.60
2018-09-14T11:37:28.856Z,51.60
2018-09-14T11:40:00.572Z,51.40
2018-09-14T11:42:31.328Z,48.60
2018-09-14T11:45:00.648Z,54.10
2018-09-14T11:47:30.016Z,52.40
2018-09-14T11:49:59.252Z,49.30
2018-09-14T11:52:28.495Z,50.60
2018-09-14T11:54:57.748Z,45.20
2018-09-14T11:57:26.997Z,47.20
2018-09-14T11:59:56.244Z,49.70
2018-09-14T12:02:25.987Z,49.40
2018-09-14T12:04:56.085Z,47.20
2018-09-14T12:07:25.352Z,49.90
2018-09-14T12:09:54.826Z,51.40
2018-09-14T12:12:24.084Z,52.10
2018-09-14T12:14:53.389Z,52.60
2018-09-14T12:17:23.738Z,53.30
2018-09-14T12:19:52.972Z,53.60
2018-09-14T12:22:22.311Z,54.60
2018-09-14T12:24:51.508Z,54.60
2018-09-14T12:27:20.800Z,55.30
2018-09-14T12:29:50.079Z,56.00
2018-09-14T12:32:19.636Z,56.30
2018-09-14T12:34:48.868Z,56.40
2018-09-14T12:37:18.117Z,56.90
2018-09-14T12:39:47.464Z,57.50
2018-09-14T12:42:17.072Z,58.40
2018-09-14T12:44:46.392Z,59.30
2018-09-14T12:47:15.663Z,59.20
2018-09-14T12:49:44.903Z,59.10
2018-09-14T12:52:14.177Z,58.90
2018-09-14T12:54:43.500Z,59.20
2018-09-14T12:57:12.759Z,59.60
2018-09-14T12:59:42.000Z,60.20
2018-09-14T13:02:11.303Z,60.40
2018-09-14T13:04:40.558Z,61.90
2018-09-14T13:07:09.801Z,61.40
2018-09-14T13:09:39.097Z,62.50
2018-09-14T13:12:08.323Z,61.60
2018-09-14T13:14:37.604Z,58.70
2018-09-14T13:17:11.759Z,57.30
2018-09-14T13:19:41.178Z,57.10
2018-09-14T13:22:10.777Z,56.70
2018-09-14T13:24:40.055Z,55.00
2018-09-14T13:27:09.340Z,55.00
2018-09-14T13:29:38.585Z,57.20
2018-09-14T13:32:07.849Z,59.00
2018-09-14T13:34:37.095Z,57.30
2018-09-14T13:37:06.352Z,53.20
2018-09-14T13:39:35.836Z,50.00
2018-09-14T13:42:05.065Z,50.70
2018-09-14T13:44:34.456Z,54.80
2018-09-14T13:47:03.721Z,55.70
2018-09-14T13:49:33.094Z,48.60
2018-09-14T13:52:02.302Z,47.80
2018-09-14T13:54:31.577Z,49.30
2018-09-14T13:57:00.853Z,49.70
2018-09-14T13:59:30.121Z,48.20
2018-09-14T14:01:59.784Z,46.00
2018-09-14T14:04:29.015Z,41.30
2018-09-14T14:06:58.255Z,40.70
2018-09-14T14:09:27.840Z,41.00
2018-09-14T14:11:57.371Z,43.10
2018-09-14T14:14:27.937Z,44.60
2018-09-14T14:16:57.350Z,45.80
2018-09-14T14:19:26.484Z,47.20
2018-09-14T14:21:55.724Z,47.80
2018-09-14T14:24:25.397Z,48.70
2018-09-14T14:26:55.940Z,49.60
2018-09-14T14:29:26.040Z,50.70
2018-09-14T14:31:55.480Z,50.90
2018-09-14T14:34:24.714Z,52.30
2018-09-14T14:36:53.992Z,54.40
2018-09-14T14:39:23.212Z,56.00
2018-09-14T14:41:52.482Z,53.50
2018-09-14T14:44:21.780Z,49.70
2018-09-14T14:46:51.148Z,48.40
2018-09-14T14:49:20.492Z,42.30
2018-09-14T14:51:50.485Z,45.70
2018-09-14T14:54:21.025Z,45.40
2018-09-14T14:56:50.288Z,47.40
2018-09-14T14:59:19.554Z,45.20
2018-09-14T15:01:48.959Z,44.50
2018-09-14T15:04:18.328Z,45.10
2018-09-14T15:06:47.605Z,47.50
2018-09-14T15:09:16.860Z,46.30
2018-09-14T15:11:46.140Z,45.40
2018-09-14T15:14:15.445Z,44.20
2018-09-14T15:16:44.728Z,45.20
2018-09-14T15:19:13.999Z,46.20
2018-09-14T15:21:43.324Z,47.90
2018-09-14T15:24:12.561Z,47.70
2018-09-14T15:26:42.076Z,48.10
2018-09-14T15:29:11.288Z,48.40
2018-09-14T15:31:40.537Z,48.30
2018-09-14T15:34:09.798Z,48.40
2018-09-14T15:36:39.108Z,49.10
2018-09-14T15:39:11.408Z,49.20
2018-09-14T15:41:40.914Z,50.50
2018-09-14T15:44:10.597Z,51.10
2018-09-14T15:46:40.596Z,51.50
2018-09-14T15:49:12.454Z,51.90
2018-09-14T15:51:41.688Z,52.30
2018-09-14T15:54:11.036Z,52.60
2018-09-14T15:56:40.268Z,53.20
2018-09-14T15:59:09.522Z,53.20
2018-09-14T16:01:38.740Z,55.90
2018-09-14T16:04:07.970Z,54.20
2018-09-14T16:06:37.539Z,51.20
2018-09-14T16:09:08.637Z,51.30
2018-09-14T16:11:37.904Z,51.70
2018-09-14T16:14:07.287Z,51.70
2018-09-14T16:16:36.544Z,50.50
2018-09-14T16:19:07.113Z,51.10
2018-09-14T16:21:36.407Z,51.90
2018-09-14T16:24:05.714Z,52.30
2018-09-14T16:26:37.267Z,51.90
2018-09-14T16:29:06.488Z,53.20
2018-09-14T16:31:36.727Z,53.80
2018-09-14T16:34:06.291Z,53.90
2018-09-14T16:36:35.591Z,53.80
2018-09-14T16:39:07.232Z,52.60
2018-09-14T16:41:36.463Z,52.10
2018-09-14T16:44:06.265Z,52.20
2018-09-14T16:46:36.075Z,51.40
2018-09-14T16:49:05.425Z,50.40
2018-09-14T16:51:34.919Z,49.70
2018-09-14T16:54:04.229Z,50.20
2018-09-14T16:56:33.444Z,51.60
2018-09-14T16:59:02.696Z,52.50
2018-09-14T17:01:31.933Z,53.50
2018-09-14T17:04:02.159Z,53.50
2018-09-14T17:06:31.524Z,54.90
2018-09-14T17:09:01.288Z,56.10
2018-09-14T17:11:30.583Z,55.80
2018-09-14T17:13:59.888Z,55.90
2018-09-14T17:16:29.549Z,56.40
2018-09-14T17:19:03.269Z,56.10
2018-09-14T17:21:32.554Z,56.80
2018-09-14T17:24:03.247Z,57.10
2018-09-14T17:26:32.719Z,56.20
2018-09-14T17:29:02.341Z,57.70
2018-09-14T17:31:31.849Z,57.60
2018-09-14T17:34:01.147Z,58.60
2018-09-14T17:36:30.497Z,58.10
2018-09-14T17:39:06.240Z,58.40
2018-09-14T17:41:35.520Z,58.20
2018-09-14T17:44:04.794Z,59.00
2018-09-14T17:46:34.040Z,59.50
2018-09-14T17:49:03.796Z,59.00
2018-09-14T17:51:33.424Z,59.70
2018-09-14T17:54:02.668Z,60.60
2018-09-14T17:56:33.172Z,60.60
2018-09-14T17:59:02.492Z,62.00
2018-09-14T18:01:31.736Z,62.40
2018-09-14T18:04:02.319Z,62.20
2018-09-14T18:06:31.573Z,62.90
2018-09-14T18:09:00.912Z,64.50
2018-09-14T18:11:30.401Z,62.60
2018-09-14T18:13:59.622Z,64.20
2018-09-14T18:16:28.966Z,63.40
2018-09-14T18:18:58.282Z,64.40
2018-09-14T18:21:27.561Z,66.00
2018-09-14T18:23:59.092Z,65.60
2018-09-14T18:26:28.454Z,64.90
2018-09-14T18:28:57.993Z,65.80
2018-09-14T18:31:27.440Z,65.50
2018-09-14T18:33:56.668Z,64.50
2018-09-14T18:36:27.194Z,65.70
2018-09-14T18:38:56.541Z,66.90
2018-09-14T18:41:29.484Z,66.00
2018-09-14T18:43:58.868Z,66.90
2018-09-14T18:46:28.384Z,67.10
2018-09-14T18:48:57.637Z,65.40
2018-09-14T18:51:29.501Z,64.90
2018-09-14T18:54:03.058Z,65.40
2018-09-14T18:56:32.383Z,65.80
2018-09-14T18:59:01.647Z,65.30
2018-09-14T19:01:30.988Z,66.10
2018-09-14T19:04:00.273Z,66.80
2018-09-14T19:06:29.544Z,66.30
2018-09-14T19:08:58.872Z,65.30
2018-09-14T19:11:28.216Z,65.30
2018-09-14T19:13:58.400Z,64.70
2018-09-14T19:16:27.755Z,64.80
2018-09-14T19:18:57.076Z,65.80
2018-09-14T19:21:26.343Z,65.50
2018-09-14T19:23:55.611Z,66.40
2018-09-14T19:26:24.872Z,66.50
2018-09-14T19:28:54.180Z,66.10
2018-09-14T19:31:23.555Z,65.80
2018-09-14T19:33:53.153Z,66.50
2018-09-14T19:36:22.817Z,65.90
2018-09-14T19:38:52.087Z,66.70
2018-09-14T19:41:21.948Z,65.80
2018-09-14T19:43:51.421Z,66.20
2018-09-14T19:46:20.670Z,66.10
2018-09-14T19:48:50.168Z,67.10
2018-09-14T19:51:19.859Z,67.10
2018-09-14T19:53:49.371Z,67.60
2018-09-14T19:56:18.708Z,67.10
2018-09-14T19:58:48.866Z,67.30
2018-09-14T20:01:18.104Z,67.30
2018-09-14T20:03:47.917Z,68.00
2018-09-14T20:06:17.824Z,68.50
2018-09-14T20:08:47.034Z,68.50
2018-09-14T20:11:17.748Z,69.20
2018-09-14T20:13:47.232Z,68.90
2018-09-14T20:16:16.487Z,68.50
2018-09-14T20:18:45.801Z,68.90
2018-09-14T20:21:15.162Z,68.50
2018-09-14T20:23:44.376Z,68.40
2018-09-14T20:26:13.924Z,69.20
2018-09-14T20:28:43.256Z,69.70
2018-09-14T20:31:12.521Z,70.60
2018-09-14T20:33:41.779Z,70.30
2018-09-14T20:36:11.119Z,69.10
2018-09-14T20:38:40.653Z,70.60
2018-09-14T20:41:12.957Z,69.50
2018-09-14T20:43:42.639Z,69.60
2018-09-14T20:46:14.192Z,69.60
2018-09-14T20:48:43.456Z,70.30
2018-09-14T20:51:12.712Z,70.80
2018-09-14T20:53:43.016Z,70.20
2018-09-14T20:56:12.305Z,71.50
2018-09-14T20:58:41.604Z,70.80
2018-09-14T21:01:11.140Z,71.90
2018-09-14T21:03:40.492Z,72.10
2018-09-14T21:06:09.712Z,75.90
2018-09-14T21:08:38.980Z,75.30
2018-09-14T21:11:08.418Z,73.90
2018-09-14T21:13:37.648Z,74.00
2018-09-14T21:16:09.177Z,74.60
2018-09-14T21:18:38.503Z,73.80
2018-09-14T21:21:07.749Z,74.20
2018-09-14T21:23:37.384Z,74.10
2018-09-14T21:26:06.732Z,75.50
2018-09-14T21:28:36.321Z,76.00
2018-09-14T21:31:05.600Z,76.90
2018-09-14T21:33:39.524Z,77.00
2018-09-14T21:36:08.757Z,77.00
2018-09-14T21:38:38.001Z,76.80
2018-09-14T21:41:07.240Z,79.50
2018-09-14T21:43:36.856Z,78.70
2018-09-14T21:46:06.096Z,77.60
2018-09-14T21:48:35.304Z,77.40
2018-09-14T21:51:04.600Z,77.60
2018-09-14T21:53:34.322Z,76.50
2018-09-14T21:56:03.824Z,76.20
2018-09-14T21:58:33.083Z,75.70
2018-09-14T22:01:10.482Z,76.00
2018-09-14T22:03:39.964Z,76.60
2018-09-14T22:06:09.258Z,77.10
2018-09-14T22:08:38.643Z,77.70
2018-09-14T22:11:08.000Z,77.80
2018-09-14T22:13:37.670Z,79.70
2018-09-14T22:16:06.924Z,78.60
2018-09-14T22:18:36.437Z,77.30
2018-09-14T22:21:06.089Z,79.00
2018-09-14T22:23:35.452Z,78.90
2018-09-14T22:26:05.294Z,79.20
2018-09-14T22:28:34.728Z,78.60
2018-09-14T22:31:04.008Z,78.80
2018-09-14T22:33:33.292Z,79.30
2018-09-14T22:36:02.531Z,78.50
2018-09-14T22:38:33.036Z,78.70
2018-09-14T22:41:02.289Z,78.10
2018-09-14T22:43:31.584Z,78.60
2018-09-14T22:46:00.827Z,78.30
2018-09-14T22:48:30.163Z,77.90
2018-09-14T22:50:59.504Z,79.20
2018-09-14T22:53:28.876Z,79.70
2018-09-14T22:55:58.444Z,79.90
2018-09-14T22:58:27.668Z,79.10
2018-09-14T23:01:02.287Z,79.80
2018-09-14T23:03:31.559Z,82.00
2018-09-14T23:06:00.781Z,81.60
2018-09-14T23:08:30.088Z,82.10
2018-09-14T23:10:59.460Z,82.50
2018-09-14T23:13:29.052Z,80.30
2018-09-14T23:16:00.408Z,81.20
2018-09-14T23:18:30.648Z,81.60
2018-09-14T23:21:00.643Z,83.70
2018-09-14T23:23:29.977Z,84.10
2018-09-14T23:26:02.936Z,84.00
2018-09-14T23:28:32.312Z,84.80
2018-09-14T23:31:01.529Z,83.00
2018-09-14T23:33:30.759Z,82.60
2018-09-14T23:36:00.012Z,84.60
2018-09-14T23:38:29.243Z,85.30
2018-09-14T23:40:58.479Z,86.50
2018-09-14T23:43:27.967Z,87.20
2018-09-14T23:45:57.268Z,86.20
2018-09-14T23:48:26.538Z,85.60
2018-09-14T23:50:55.852Z,87.30
2018-09-14T23:53:25.141Z,87.60
2018-09-14T23:55:54.393Z,89.90
2018-09-14T23:58:23.835Z,90.90
